• Join FlightAware (Why Join?)
  • Login
  • US Flag 
Rudolph Flight #1: Arrived! 
05:21AM EST


 

Airport Tracker/Info


-or-


 

Live Flight TrackerFlight Track Log ✈ SWA4743 ✈ 27-Dec-2012 ✈ KMDW - KMHT

Flight Track Log - Related Links

Times and Time Zones

All times are in EST time to prevent confusion due to time zone crossing. See the SWA4743 flight status page for this flight to view local times or setup timezone preferences in your user account.

Time Position Orientation Groundspeed Altitude Reporting Facility
EST Latitude Longitude Course Direction KTS MPH feet Rate Location/Type
11:33PM 41.8167 -87.7667 89° East 207 238 2,800  Level Chicago TRACON
11:35PM 41.8186 -87.5983 89° East 232 267 5,000 660 Climbing Chicago Center
11:36PM 41.8100 -87.5111 98° East 236 272 5,000 1,080 Level Chicago Center
11:37PM 41.8014 -87.4192 97° East 243 280 7,300 3,000 Climbing Chicago Center
11:38PM 41.7856 -87.2842 99° East 296 341 11,100 3,480 Climbing Chicago Center
11:39PM 41.7725 -87.1578 98° East 331 381 14,400 2,940 Climbing Chicago Center
11:40PM 41.7603 -87.0172 97° East 376 433 17,100 2,640 Climbing Chicago Center
11:41PM 41.7642 -86.8614 88° East 413 475 19,800 2,640 Climbing Chicago Center
11:42PM 41.7661 -86.7000 89° East 430 495 22,500 2,400 Climbing Chicago Center
11:43PM 41.7669 -86.5514 90° East 447 514 24,700 2,340 Climbing Chicago Center
11:44PM 41.7683 -86.3414 89° East 470 541 27,300 2,160 Climbing Chicago Center
11:45PM 41.7969 -86.1600 78° East 494 568 29,100 1,620 Climbing Chicago Center
11:46PM 41.8281 -85.9739 77° East 508 585 30,600 1,380 Climbing Chicago Center
11:47PM 41.8611 -85.7775 77° East 531 611 32,000 1,800 Climbing Chicago Center
11:48PM 41.8944 -85.5792 77° East 541 623 34,300 2,040 Climbing Chicago Center
11:49PM 41.9269 -85.3831 77° East 534 615 36,200 1,740 Climbing Chicago Center
11:50PM 41.9419 -85.3044 76° East 547 629 36,800 540 Climbing Cleveland Center
11:51PM 41.9539 -85.1125 85° East 536 617 37,000 60 Climbing Cleveland Center
11:52PM 41.9531 -84.9197 90° East 518 596 37,000  Level Cleveland Center
11:53PM 41.9725 -84.7339 82° East 508 585 37,000  Level Cleveland Center
11:54PM 41.9958 -84.5453 80° East 513 590 37,000  Level Cleveland Center
11:55PM 42.0147 -84.3536 82° East 513 590 37,000  Level Cleveland Center
11:56PM 42.0347 -84.1814 81° East 518 596 37,000  Level Cleveland Center
11:57PM 42.0575 -83.9869 81° East 518 596 37,000  Level Cleveland Center
11:58PM 42.0778 -83.7892 82° East 518 596 37,000  Level Cleveland Center
11:59PM 42.0975 -83.5972 82° East 518 596 37,000  Level Cleveland Center
12:00AM 42.1214 -83.3994 81° East 523 602 37,000  Level Cleveland Center
12:01AM 42.1400 -83.2239 82° East 529 609 37,000  Level Cleveland Center
12:02AM 42.1617 -83.0064 82° East 529 609 37,000  Level Cleveland Center
12:03AM 42.1800 -82.8108 83° East 521 600 37,000  Level Cleveland Center
12:04AM 42.2025 -82.6153 81° East 521 600 37,000  Level Cleveland Center
12:05AM 42.2203 -82.4197 83° East 521 600 37,000  Level Cleveland Center
12:06AM 42.2400 -82.2239 82° East 521 600 37,000  Level Cleveland Center
12:07AM 42.2617 -82.0028 82° East 521 600 37,000  Level Cleveland Center
12:08AM 42.2808 -81.8039 83° East 526 605 37,000  Level Cleveland Center
12:09AM 42.2969 -81.6275 83° East 526 605 37,000  Level Cleveland Center
12:10AM 42.3153 -81.4311 83° East 526 605 37,000  Level Cleveland Center
12:11AM 42.3333 -81.2319 83° East 531 611 37,000  Level Cleveland Center
12:12AM 42.3531 -81.0300 82° East 539 620 37,000  Level Cleveland Center
12:13AM 42.3683 -80.8306 84° East 539 620 37,000  Level Cleveland Center
12:14AM 42.3872 -80.6142 83° East 539 620 37,000  Level Cleveland Center
12:15AM 42.4039 -80.4144 83° East 534 615 37,000  Level Cleveland Center
12:16AM 42.4200 -80.2147 84° East 543 625 37,000  Level Cleveland Center
12:17AM 42.4381 -80.0119 83° East 543 625 37,000  Level Cleveland Center
12:18AM 42.4514 -79.8122 85° East 543 625 37,000  Level Cleveland Center
12:19AM 42.4644 -79.6150 85° East 536 617 37,000  Level Cleveland Center
12:20AM 42.4794 -79.4150 84° East 536 617 37,000  Level Cleveland Center
12:21AM 42.4917 -79.2175 85° East 536 617 37,000  Level Cleveland Center
12:22AM 42.5058 -79.0172 84° East 541 623 37,000  Level Cleveland Center
12:23AM 42.5200 -78.8367 84° East 531 611 37,000  Level Cleveland Center
12:24AM 42.5336 -78.6419 85° East 531 611 37,000  Level Cleveland Center
12:25AM 42.5447 -78.4442 86° East 531 611 37,000  Level Cleveland Center
12:26AM 42.5575 -78.2464 85° East 531 611 37,000  Level Cleveland Center
12:27AM 42.5700 -78.0514 85° East 525 604 37,000  Level Cleveland Center
12:28AM 42.5822 -77.8564 85° East 520 598 37,000  Level Cleveland Center
12:29AM 42.5961 -77.6611 84° East 515 593 37,000  Level Cleveland Center
12:30AM 42.6078 -77.4658 85° East 520 598 37,000  Level Cleveland Center
12:32AM 42.6300 -76.9956 86° East 518 596 37,000  Level Boston Center
12:33AM 42.6397 -76.8042 86° East 512 589 37,000  Level Boston Center
12:34AM 42.6489 -76.6128 86° East 512 589 37,000  Level Boston Center
12:35AM 42.6558 -76.4211 87° East 512 589 37,000  Level Boston Center
12:36AM 42.6667 -76.2269 86° East 512 589 37,000  Level Boston Center
12:37AM 42.6747 -76.0383 87° East 512 589 37,000  Level Boston Center
12:38AM 42.6836 -75.8239 87° East 512 589 37,000  Level Boston Center
12:39AM 42.6911 -75.6350 87° East 512 589 37,000  Level Boston Center
12:40AM 42.7047 -75.4408 84° East 512 589 37,000  Level Boston Center
12:41AM 42.7158 -75.2464 85° East 512 589 37,000 -300 Level Boston Center
12:42AM 42.7247 -75.0572 86° East 512 589 36,500 -780 Descending Boston Center
12:43AM 42.7350 -74.8656 86° East 507 583 35,500 -1,080 Descending Boston Center
12:44AM 42.7431 -74.6764 87° East 507 583 34,400 -1,800 Descending Boston Center
12:45AM 42.7528 -74.4900 86° East 502 578 32,000 -1,260 Descending Boston Center
12:46AM 42.7625 -74.3039 86° East 497 572 31,900 -420 Descending Boston Center
12:47AM 42.7736 -74.1175 85° East 497 572 31,200 -900 Descending Boston Center
12:48AM 42.7781 -73.9450 88° East 478 550 30,100 -1,080 Descending Boston Center
12:49AM 42.7886 -73.7756 85° East 458 527 29,100 -1,500 Descending Boston Center
12:50AM 42.7964 -73.6228 86° East 433 498 27,200 -1,980 Descending Boston Center
12:51AM 42.8022 -73.4700 87° East 413 475 25,200 -1,620 Descending Boston Center
12:52AM 42.8075 -73.3175 87° East 407 468 24,000 -600 Descending Boston Center
12:53AM 42.8150 -73.1703 86° East 395 455 24,000 -300 Level Boston Center
12:54AM 42.8200 -73.0231 87° East 390 449 23,500 -1,440 Descending Boston Center
12:55AM 42.8247 -72.8675 88° East 396 456 21,200 -2,400 Descending Boston Center
12:56AM 42.8314 -72.7344 86° East 391 450 18,800 -2,460 Descending Boston Center
12:57AM 42.8358 -72.5903 88° East 372 428 16,300 -2,340 Descending Boston Center
12:58AM 42.8403 -72.4486 88° East 372 428 14,200 -2,040 Descending Boston Center
12:59AM 42.8358 -72.3156 93° East 359 413 12,300 -1,740 Descending Boston Center
01:00AM 42.8128 -72.2081 106° East 337 388 10,800 -1,740 Descending Boston Center
01:01AM 42.7875 -72.0836 105° East 313 360 8,900 -1,500 Descending Boston Center
01:02AM 42.7683 -71.9847 105° East 302 348 7,800 -1,500 Descending Boston Center
01:03AM 42.7533 -71.8717 100° East 285 328 6,000 -1,440 Descending Boston Center
01:04AM 42.7425 -71.7814 99° East 273 314 5,000 -1,140 Descending Boston Center
01:05AM 42.7292 -71.6825 100° East 249 287 3,800 -960 Descending Boston Center
01:06AM 42.7161 -71.6036 103° East 234 269 3,100 -360 Descending Boston Center
01:07AM 42.7239 -71.5158 83° East 220 253 3,100  Level Boston Center
01:08AM 42.7419 -71.4364 73° East 214 246 3,100  Level Boston Center
01:09AM 42.7600 -71.3683 70° East 206 237 3,100 -60 Level Boston Center
01:10AM 42.8058 -71.3619 North 148 170 3,000 -480 Descending Boston Center
01:11AM 42.8394 -71.3811 337° Northwest 127 146 2,200 -720 Descending Boston Center
01:12AM 42.8667 -71.3947 340° North 127 146 1,600 -600 Descending Boston Center
01:15AM 42.9167 -71.4333 332° Northwest  Level FlightAware Approximate
01:22AM 42.9328 -71.4358 332° Northwest  Level Estimated